sensor_id;sensor_type;location;lat;lon;timestamp;temperature;humidity
53286;DHT22;39171;45.550;12.074;2023-05-15T00:04:44;17.30;81.30
53286;DHT22;39171;45.550;12.074;2023-05-15T00:10:50;17.30;81.10
53286;DHT22;39171;45.550;12.074;2023-05-15T00:16:51;17.30;81.00
53286;DHT22;39171;45.550;12.074;2023-05-15T00:22:53;17.30;81.00
53286;DHT22;39171;45.550;12.074;2023-05-15T00:28:55;17.30;81.20
53286;DHT22;39171;45.550;12.074;2023-05-15T00:35:04;17.30;81.20
53286;DHT22;39171;45.550;12.074;2023-05-15T00:41:10;17.30;81.00
53286;DHT22;39171;45.550;12.074;2023-05-15T00:47:13;17.30;81.20
53286;DHT22;39171;45.550;12.074;2023-05-15T00:53:15;17.30;81.10
53286;DHT22;39171;45.550;12.074;2023-05-15T00:59:17;17.30;81.20
53286;DHT22;39171;45.550;12.074;2023-05-15T01:05:19;17.30;81.20
53286;DHT22;39171;45.550;12.074;2023-05-15T01:11:23;17.30;81.10
53286;DHT22;39171;45.550;12.074;2023-05-15T01:17:26;17.30;81.10
53286;DHT22;39171;45.550;12.074;2023-05-15T01:36:47;17.30;81.60
53286;DHT22;39171;45.550;12.074;2023-05-15T01:42:54;17.30;81.70
53286;DHT22;39171;45.550;12.074;2023-05-15T01:48:57;17.20;81.60
53286;DHT22;39171;45.550;12.074;2023-05-15T01:55:01;17.20;81.30
53286;DHT22;39171;45.550;12.074;2023-05-15T02:01:07;17.20;81.20
53286;DHT22;39171;45.550;12.074;2023-05-15T02:07:12;17.20;81.20
53286;DHT22;39171;45.550;12.074;2023-05-15T02:13:14;17.20;81.10
53286;DHT22;39171;45.550;12.074;2023-05-15T02:19:15;17.20;81.20
53286;DHT22;39171;45.550;12.074;2023-05-15T02:25:17;17.20;81.20
53286;DHT22;39171;45.550;12.074;2023-05-15T02:31:37;17.20;81.10
53286;DHT22;39171;45.550;12.074;2023-05-15T02:37:50;17.20;81.10
53286;DHT22;39171;45.550;12.074;2023-05-15T02:43:53;17.20;81.00
53286;DHT22;39171;45.550;12.074;2023-05-15T02:49:56;17.20;81.10
53286;DHT22;39171;45.550;12.074;2023-05-15T02:56:00;17.20;81.10
53286;DHT22;39171;45.550;12.074;2023-05-15T03:02:02;17.20;81.20
53286;DHT22;39171;45.550;12.074;2023-05-15T03:08:05;17.20;81.00
53286;DHT22;39171;45.550;12.074;2023-05-15T03:14:07;17.20;80.90
53286;DHT22;39171;45.550;12.074;2023-05-15T03:20:08;17.20;80.90
53286;DHT22;39171;45.550;12.074;2023-05-15T03:26:11;17.10;80.90
53286;DHT22;39171;45.550;12.074;2023-05-15T03:32:12;17.20;80.90
53286;DHT22;39171;45.550;12.074;2023-05-15T03:38:14;17.10;80.90
53286;DHT22;39171;45.550;12.074;2023-05-15T03:44:15;17.10;80.80
53286;DHT22;39171;45.550;12.074;2023-05-15T03:50:17;17.10;80.90
53286;DHT22;39171;45.550;12.074;2023-05-15T03:56:18;17.10;80.90
53286;DHT22;39171;45.550;12.074;2023-05-15T04:02:21;17.10;80.80
53286;DHT22;39171;45.550;12.074;2023-05-15T04:08:22;17.10;80.80
53286;DHT22;39171;45.550;12.074;2023-05-15T04:14:24;17.00;80.90
53286;DHT22;39171;45.550;12.074;2023-05-15T04:20:28;17.10;80.80
53286;DHT22;39171;45.550;12.074;2023-05-15T04:26:29;17.00;80.80
53286;DHT22;39171;45.550;12.074;2023-05-15T04:32:32;17.00;80.80
53286;DHT22;39171;45.550;12.074;2023-05-15T04:38:36;17.00;80.80
53286;DHT22;39171;45.550;12.074;2023-05-15T04:44:37;17.10;81.00
53286;DHT22;39171;45.550;12.074;2023-05-15T04:50:39;17.00;81.00
53286;DHT22;39171;45.550;12.074;2023-05-15T04:56:40;17.00;80.90
53286;DHT22;39171;45.550;12.074;2023-05-15T05:02:42;17.00;80.90
53286;DHT22;39171;45.550;12.074;2023-05-15T05:08:44;17.00;80.90
53286;DHT22;39171;45.550;12.074;2023-05-15T05:14:45;17.00;81.00
53286;DHT22;39171;45.550;12.074;2023-05-15T05:20:46;17.00;81.00
53286;DHT22;39171;45.550;12.074;2023-05-15T05:26:48;17.00;81.00
53286;DHT22;39171;45.550;12.074;2023-05-15T05:32:49;17.00;81.00
53286;DHT22;39171;45.550;12.074;2023-05-15T05:38:55;17.00;81.00
53286;DHT22;39171;45.550;12.074;2023-05-15T05:44:56;17.00;81.30
53286;DHT22;39171;45.550;12.074;2023-05-15T05:51:02;17.00;81.20
53286;DHT22;39171;45.550;12.074;2023-05-15T05:57:03;17.00;81.10
53286;DHT22;39171;45.550;12.074;2023-05-15T06:03:05;17.00;81.10
53286;DHT22;39171;45.550;12.074;2023-05-15T06:09:06;17.00;81.10
53286;DHT22;39171;45.550;12.074;2023-05-15T06:15:08;17.00;81.00
53286;DHT22;39171;45.550;12.074;2023-05-15T06:21:09;17.00;81.00
53286;DHT22;39171;45.550;12.074;2023-05-15T06:27:11;17.00;81.00
53286;DHT22;39171;45.550;12.074;2023-05-15T06:33:12;17.00;81.00
53286;DHT22;39171;45.550;12.074;2023-05-15T06:39:13;17.00;80.80
53286;DHT22;39171;45.550;12.074;2023-05-15T06:45:15;17.00;80.90
53286;DHT22;39171;45.550;12.074;2023-05-15T06:51:16;17.00;80.90
53286;DHT22;39171;45.550;12.074;2023-05-15T06:57:18;17.10;80.80
53286;DHT22;39171;45.550;12.074;2023-05-15T07:03:20;17.00;80.90
53286;DHT22;39171;45.550;12.074;2023-05-15T07:09:21;17.00;80.80
53286;DHT22;39171;45.550;12.074;2023-05-15T07:15:22;17.10;80.70
53286;DHT22;39171;45.550;12.074;2023-05-15T07:21:24;17.10;80.60
53286;DHT22;39171;45.550;12.074;2023-05-15T07:27:25;17.10;80.70
53286;DHT22;39171;45.550;12.074;2023-05-15T07:33:27;17.10;80.60
53286;DHT22;39171;45.550;12.074;2023-05-15T07:39:28;17.10;80.40
53286;DHT22;39171;45.550;12.074;2023-05-15T07:45:29;17.20;80.20
53286;DHT22;39171;45.550;12.074;2023-05-15T07:51:31;17.10;80.30
53286;DHT22;39171;45.550;12.074;2023-05-15T07:57:32;17.10;80.10
53286;DHT22;39171;45.550;12.074;2023-05-15T08:03:35;17.20;80.10
53286;DHT22;39171;45.550;12.074;2023-05-15T08:09:36;17.10;80.10
53286;DHT22;39171;45.550;12.074;2023-05-15T08:15:37;17.20;80.10
53286;DHT22;39171;45.550;12.074;2023-05-15T08:21:39;17.20;79.40
53286;DHT22;39171;45.550;12.074;2023-05-15T08:27:41;17.20;79.00
53286;DHT22;39171;45.550;12.074;2023-05-15T08:33:42;17.20;78.40
53286;DHT22;39171;45.550;12.074;2023-05-15T08:39:43;17.20;78.20
53286;DHT22;39171;45.550;12.074;2023-05-15T08:45:45;17.20;78.10
53286;DHT22;39171;45.550;12.074;2023-05-15T08:51:47;17.20;78.10
53286;DHT22;39171;45.550;12.074;2023-05-15T08:57:49;17.20;78.10
53286;DHT22;39171;45.550;12.074;2023-05-15T09:03:51;17.20;78.20
53286;DHT22;39171;45.550;12.074;2023-05-15T09:09:53;17.20;77.90
53286;DHT22;39171;45.550;12.074;2023-05-15T09:15:56;17.20;78.00
53286;DHT22;39171;45.550;12.074;2023-05-15T09:22:16;17.20;77.90
53286;DHT22;39171;45.550;12.074;2023-05-15T09:28:26;17.20;77.80
53286;DHT22;39171;45.550;12.074;2023-05-15T09:34:29;17.30;77.70
53286;DHT22;39171;45.550;12.074;2023-05-15T09:40:31;17.30;77.10
53286;DHT22;39171;45.550;12.074;2023-05-15T09:46:35;17.30;77.30
53286;DHT22;39171;45.550;12.074;2023-05-15T09:52:58;17.30;77.10
53286;DHT22;39171;45.550;12.074;2023-05-15T09:58:59;17.30;76.60
53286;DHT22;39171;45.550;12.074;2023-05-15T10:05:01;17.30;76.50
53286;DHT22;39171;45.550;12.074;2023-05-15T10:11:02;17.40;76.40
53286;DHT22;39171;45.550;12.074;2023-05-15T10:17:05;17.40;76.20
53286;DHT22;39171;45.550;12.074;2023-05-15T10:23:08;17.40;76.10
53286;DHT22;39171;45.550;12.074;2023-05-15T10:29:16;17.50;76.00
53286;DHT22;39171;45.550;12.074;2023-05-15T10:35:18;17.50;75.80
53286;DHT22;39171;45.550;12.074;2023-05-15T10:41:20;17.50;75.70
53286;DHT22;39171;45.550;12.074;2023-05-15T10:47:23;17.50;75.90
53286;DHT22;39171;45.550;12.074;2023-05-15T10:53:24;17.50;75.90
53286;DHT22;39171;45.550;12.074;2023-05-15T10:59:33;17.60;75.70
53286;DHT22;39171;45.550;12.074;2023-05-15T11:06:06;17.60;75.40
53286;DHT22;39171;45.550;12.074;2023-05-15T11:12:09;17.70;75.20
53286;DHT22;39171;45.550;12.074;2023-05-15T11:18:12;17.70;75.10
53286;DHT22;39171;45.550;12.074;2023-05-15T11:24:13;17.80;75.10
53286;DHT22;39171;45.550;12.074;2023-05-15T11:36:41;17.80;75.20
53286;DHT22;39171;45.550;12.074;2023-05-15T11:43:12;17.80;75.20
53286;DHT22;39171;45.550;12.074;2023-05-15T11:49:19;17.80;75.00
53286;DHT22;39171;45.550;12.074;2023-05-15T11:55:21;17.80;74.90
53286;DHT22;39171;45.550;12.074;2023-05-15T12:01:23;17.80;74.60
53286;DHT22;39171;45.550;12.074;2023-05-15T12:07:25;17.90;74.40
53286;DHT22;39171;45.550;12.074;2023-05-15T12:13:27;17.90;73.80
53286;DHT22;39171;45.550;12.074;2023-05-15T12:19:29;18.00;73.40
53286;DHT22;39171;45.550;12.074;2023-05-15T12:25:32;18.00;73.20
53286;DHT22;39171;45.550;12.074;2023-05-15T12:31:34;18.00;73.00
53286;DHT22;39171;45.550;12.074;2023-05-15T12:37:37;18.10;72.30
53286;DHT22;39171;45.550;12.074;2023-05-15T12:43:39;18.20;71.70
53286;DHT22;39171;45.550;12.074;2023-05-15T12:49:41;18.30;71.30
53286;DHT22;39171;45.550;12.074;2023-05-15T12:55:44;18.30;71.00
53286;DHT22;39171;45.550;12.074;2023-05-15T13:01:46;18.30;70.70
53286;DHT22;39171;45.550;12.074;2023-05-15T13:07:48;18.40;70.20
53286;DHT22;39171;45.550;12.074;2023-05-15T13:13:49;18.60;69.70
53286;DHT22;39171;45.550;12.074;2023-05-15T13:19:50;18.70;69.40
53286;DHT22;39171;45.550;12.074;2023-05-15T13:25:52;18.70;69.20
53286;DHT22;39171;45.550;12.074;2023-05-15T13:31:53;18.70;69.10
53286;DHT22;39171;45.550;12.074;2023-05-15T13:37:55;18.80;68.90
53286;DHT22;39171;45.550;12.074;2023-05-15T13:43:56;18.80;68.70
53286;DHT22;39171;45.550;12.074;2023-05-15T13:50:00;18.80;68.60
53286;DHT22;39171;45.550;12.074;2023-05-15T13:56:01;18.90;68.40
53286;DHT22;39171;45.550;12.074;2023-05-15T14:02:03;18.90;68.30
53286;DHT22;39171;45.550;12.074;2023-05-15T14:08:10;19.00;68.20
53286;DHT22;39171;45.550;12.074;2023-05-15T14:14:15;19.00;67.80
53286;DHT22;39171;45.550;12.074;2023-05-15T14:20:16;19.10;67.60
53286;DHT22;39171;45.550;12.074;2023-05-15T14:26:20;19.20;67.30
53286;DHT22;39171;45.550;12.074;2023-05-15T14:32:22;19.20;67.20
53286;DHT22;39171;45.550;12.074;2023-05-15T14:38:24;19.20;66.90
53286;DHT22;39171;45.550;12.074;2023-05-15T14:44:25;19.10;66.60
53286;DHT22;39171;45.550;12.074;2023-05-15T14:50:27;19.10;66.50
53286;DHT22;39171;45.550;12.074;2023-05-15T14:56:28;19.10;66.50
53286;DHT22;39171;45.550;12.074;2023-05-15T15:02:29;19.10;66.30
53286;DHT22;39171;45.550;12.074;2023-05-15T15:08:31;19.00;66.10
53286;DHT22;39171;45.550;12.074;2023-05-15T15:14:32;19.00;66.10
53286;DHT22;39171;45.550;12.074;2023-05-15T15:20:35;19.00;65.80
53286;DHT22;39171;45.550;12.074;2023-05-15T15:26:39;18.90;65.40
53286;DHT22;39171;45.550;12.074;2023-05-15T15:32:41;19.00;65.30
53286;DHT22;39171;45.550;12.074;2023-05-15T15:38:42;19.00;65.20
53286;DHT22;39171;45.550;12.074;2023-05-15T15:44:44;19.00;65.00
53286;DHT22;39171;45.550;12.074;2023-05-15T15:50:45;18.90;65.00
53286;DHT22;39171;45.550;12.074;2023-05-15T15:56:47;18.90;65.00
53286;DHT22;39171;45.550;12.074;2023-05-15T16:02:49;18.90;65.00
53286;DHT22;39171;45.550;12.074;2023-05-15T16:08:50;18.90;65.00
53286;DHT22;39171;45.550;12.074;2023-05-15T16:14:53;18.90;64.90
53286;DHT22;39171;45.550;12.074;2023-05-15T16:20:54;18.90;64.70
53286;DHT22;39171;45.550;12.074;2023-05-15T16:26:56;18.90;64.60
53286;DHT22;39171;45.550;12.074;2023-05-15T16:32:58;18.80;64.70
53286;DHT22;39171;45.550;12.074;2023-05-15T16:39:00;18.80;64.70
53286;DHT22;39171;45.550;12.074;2023-05-15T16:45:04;18.80;64.70
53286;DHT22;39171;45.550;12.074;2023-05-15T16:51:05;18.80;64.70
53286;DHT22;39171;45.550;12.074;2023-05-15T16:57:07;18.80;64.60
53286;DHT22;39171;45.550;12.074;2023-05-15T17:03:08;18.80;64.50
53286;DHT22;39171;45.550;12.074;2023-05-15T17:09:10;18.80;64.60
53286;DHT22;39171;45.550;12.074;2023-05-15T17:15:11;18.90;64.70
53286;DHT22;39171;45.550;12.074;2023-05-15T17:21:13;18.90;64.60
53286;DHT22;39171;45.550;12.074;2023-05-15T17:27:14;18.90;64.70
53286;DHT22;39171;45.550;12.074;2023-05-15T17:33:16;19.00;64.70
53286;DHT22;39171;45.550;12.074;2023-05-15T17:39:17;18.90;64.60
53286;DHT22;39171;45.550;12.074;2023-05-15T17:45:18;18.90;64.50
53286;DHT22;39171;45.550;12.074;2023-05-15T17:51:20;18.90;64.70
53286;DHT22;39171;45.550;12.074;2023-05-15T17:57:21;18.90;64.90
53286;DHT22;39171;45.550;12.074;2023-05-15T18:03:23;18.90;64.90
53286;DHT22;39171;45.550;12.074;2023-05-15T18:09:24;19.00;65.00
53286;DHT22;39171;45.550;12.074;2023-05-15T18:15:26;18.90;65.00
53286;DHT22;39171;45.550;12.074;2023-05-15T18:21:27;18.90;65.20
53286;DHT22;39171;45.550;12.074;2023-05-15T18:27:28;18.90;65.20
53286;DHT22;39171;45.550;12.074;2023-05-15T18:33:30;18.90;65.40
53286;DHT22;39171;45.550;12.074;2023-05-15T18:39:32;18.80;65.50
53286;DHT22;39171;45.550;12.074;2023-05-15T18:45:33;18.80;65.60
53286;DHT22;39171;45.550;12.074;2023-05-15T18:51:34;18.80;65.90
53286;DHT22;39171;45.550;12.074;2023-05-15T18:57:36;18.70;66.10
53286;DHT22;39171;45.550;12.074;2023-05-15T19:03:37;18.70;66.40
53286;DHT22;39171;45.550;12.074;2023-05-15T19:09:39;18.70;66.60
53286;DHT22;39171;45.550;12.074;2023-05-15T19:15:48;18.70;66.80
53286;DHT22;39171;45.550;12.074;2023-05-15T19:21:49;18.70;67.00
53286;DHT22;39171;45.550;12.074;2023-05-15T19:27:53;18.60;67.20
53286;DHT22;39171;45.550;12.074;2023-05-15T19:33:56;18.60;67.40
53286;DHT22;39171;45.550;12.074;2023-05-15T19:39:57;18.60;67.50
53286;DHT22;39171;45.550;12.074;2023-05-15T19:45:58;18.60;67.60
53286;DHT22;39171;45.550;12.074;2023-05-15T19:52:04;18.60;67.70
53286;DHT22;39171;45.550;12.074;2023-05-15T19:58:06;18.50;67.90
53286;DHT22;39171;45.550;12.074;2023-05-15T20:04:07;18.50;68.00
53286;DHT22;39171;45.550;12.074;2023-05-15T20:10:09;18.50;68.10
53286;DHT22;39171;45.550;12.074;2023-05-15T20:16:12;18.50;68.20
53286;DHT22;39171;45.550;12.074;2023-05-15T20:22:14;18.40;68.40
53286;DHT22;39171;45.550;12.074;2023-05-15T20:28:15;18.50;68.50
53286;DHT22;39171;45.550;12.074;2023-05-15T20:34:17;18.40;68.50
53286;DHT22;39171;45.550;12.074;2023-05-15T20:40:19;18.40;68.60
53286;DHT22;39171;45.550;12.074;2023-05-15T20:46:23;18.40;68.70
53286;DHT22;39171;45.550;12.074;2023-05-15T20:52:24;18.40;68.80
53286;DHT22;39171;45.550;12.074;2023-05-15T20:58:26;18.40;68.90
53286;DHT22;39171;45.550;12.074;2023-05-15T21:04:28;18.40;68.90
53286;DHT22;39171;45.550;12.074;2023-05-15T21:10:30;18.40;69.00
53286;DHT22;39171;45.550;12.074;2023-05-15T21:16:31;18.40;69.10
53286;DHT22;39171;45.550;12.074;2023-05-15T21:22:33;18.30;69.10
53286;DHT22;39171;45.550;12.074;2023-05-15T21:28:34;18.40;69.20
53286;DHT22;39171;45.550;12.074;2023-05-15T21:34:36;18.30;69.20
53286;DHT22;39171;45.550;12.074;2023-05-15T21:40:38;18.40;69.30
53286;DHT22;39171;45.550;12.074;2023-05-15T21:46:39;18.40;69.40
53286;DHT22;39171;45.550;12.074;2023-05-15T21:52:40;18.30;69.40
53286;DHT22;39171;45.550;12.074;2023-05-15T21:58:42;18.30;69.50
53286;DHT22;39171;45.550;12.074;2023-05-15T22:04:44;18.30;69.50
53286;DHT22;39171;45.550;12.074;2023-05-15T22:10:46;18.40;69.60
53286;DHT22;39171;45.550;12.074;2023-05-15T22:16:47;18.30;69.60
53286;DHT22;39171;45.550;12.074;2023-05-15T22:22:49;18.30;69.70
53286;DHT22;39171;45.550;12.074;2023-05-15T22:28:54;18.30;69.70
53286;DHT22;39171;45.550;12.074;2023-05-15T22:34:56;18.30;69.80
53286;DHT22;39171;45.550;12.074;2023-05-15T22:40:57;18.30;69.80
53286;DHT22;39171;45.550;12.074;2023-05-15T22:46:59;18.30;69.90
53286;DHT22;39171;45.550;12.074;2023-05-15T22:53:00;18.30;70.00
53286;DHT22;39171;45.550;12.074;2023-05-15T22:59:02;18.30;70.10
53286;DHT22;39171;45.550;12.074;2023-05-15T23:05:04;18.30;70.30
53286;DHT22;39171;45.550;12.074;2023-05-15T23:11:06;18.30;70.50
53286;DHT22;39171;45.550;12.074;2023-05-15T23:17:07;18.30;70.50
53286;DHT22;39171;45.550;12.074;2023-05-15T23:23:08;18.30;70.60
53286;DHT22;39171;45.550;12.074;2023-05-15T23:29:10;18.30;70.80
53286;DHT22;39171;45.550;12.074;2023-05-15T23:35:11;18.30;70.70
53286;DHT22;39171;45.550;12.074;2023-05-15T23:41:12;18.30;71.00
53286;DHT22;39171;45.550;12.074;2023-05-15T23:47:14;18.30;71.20
53286;DHT22;39171;45.550;12.074;2023-05-15T23:53:16;18.30;71.30
53286;DHT22;39171;45.550;12.074;2023-05-15T23:59:19;18.30;71.40
